Aviation Digital Data Service (ADDS)

Output produced by METARs form (1425 UTC 22 April 2019)
found at http://www.aviationweather.gov/metar/data/
 
METAR text: PTPN 220350Z 11010KT 15SM SCT018TCU BKN130 OVC300 31/25 A2977 RMK TCU SE LAST
Conditions at: PTPN (POHNPEI AIRPORT , FM) observed 0350 UTC 22 April 2019
Temperature: 31.0°C (88°F)
Dewpoint: 25.0°C (77°F) [RH = 71%]
Pressure (altimeter): 29.77 inches Hg (1008.2 mb)
Winds: from the ESE (110 degrees) at 12 MPH (10 knots; 5.1 m/s)
Visibility: 15 miles (24 km)
Ceiling: 13000 feet AGL
Clouds: scattered clouds at 1800 feet AGL
broken clouds at 13000 feet AGL
overcast cloud deck at 30000 feet AGL
Weather: no significant weather observed at this time

METAR text: PTPN 220250Z 06012KT 15SM SCT018 BKN130 OVC300 31/25 A2978
Conditions at: PTPN (POHNPEI AIRPORT , FM) observed 0250 UTC 22 April 2019
Temperature: 31.0°C (88°F)
Dewpoint: 25.0°C (77°F) [RH = 71%]
Pressure (altimeter): 29.78 inches Hg (1008.5 mb)
Winds: from the ENE (60 degrees) at 14 MPH (12 knots; 6.2 m/s)
Visibility: 15 miles (24 km)
Ceiling: 13000 feet AGL
Clouds: scattered clouds at 1800 feet AGL
broken clouds at 13000 feet AGL
overcast cloud deck at 30000 feet AGL
Weather: no significant weather observed at this time

METAR text: PTPN 220150Z 09010KT 15SM SCT018 BKN130 OVC300 31/25 A2982
Conditions at: PTPN (POHNPEI AIRPORT , FM) observed 0150 UTC 22 April 2019
Temperature: 31.0°C (88°F)
Dewpoint: 25.0°C (77°F) [RH = 71%]
Pressure (altimeter): 29.82 inches Hg (1009.9 mb)
Winds: from the E (90 degrees) at 12 MPH (10 knots; 5.1 m/s)
Visibility: 15 miles (24 km)
Ceiling: 13000 feet AGL
Clouds: scattered clouds at 1800 feet AGL
broken clouds at 13000 feet AGL
overcast cloud deck at 30000 feet AGL
Weather: no significant weather observed at this time

METAR text: PTPN 220053Z 08010KT 15SM SCT018 BKN130 OVC300 31/25 A2982
Conditions at: PTPN (POHNPEI AIRPORT , FM) observed 0053 UTC 22 April 2019
Temperature: 31.0°C (88°F)
Dewpoint: 25.0°C (77°F) [RH = 71%]
Pressure (altimeter): 29.82 inches Hg (1009.9 mb)
Winds: from the E (80 degrees) at 12 MPH (10 knots; 5.1 m/s)
Visibility: 15 miles (24 km)
Ceiling: 13000 feet AGL
Clouds: scattered clouds at 1800 feet AGL
broken clouds at 13000 feet AGL
overcast cloud deck at 30000 feet AGL
Weather: no significant weather observed at this time

METAR text: PTPN 212350Z 07008KT 15SM SCT018 BKN130 OVC300 31/25 A2982
Conditions at: PTPN (POHNPEI AIRPORT , FM) observed 2350 UTC 21 April 2019
Temperature: 31.0°C (88°F)
Dewpoint: 25.0°C (77°F) [RH = 71%]
Pressure (altimeter): 29.82 inches Hg (1009.9 mb)
Winds: from the ENE (70 degrees) at 9 MPH (8 knots; 4.1 m/s)
Visibility: 15 miles (24 km)
Ceiling: 13000 feet AGL
Clouds: scattered clouds at 1800 feet AGL
broken clouds at 13000 feet AGL
overcast cloud deck at 30000 feet AGL
Weather: no significant weather observed at this time

METAR text: PTPN 212254Z 12010KT 15SM VCSH BKN018TCU OVC300 31/25 A2984 RMK VCSH E TCU NE-S
Conditions at: PTPN (POHNPEI AIRPORT , FM) observed 2254 UTC 21 April 2019
Temperature: 31.0°C (88°F)
Dewpoint: 25.0°C (77°F) [RH = 71%]
Pressure (altimeter): 29.84 inches Hg (1010.6 mb)
Winds: from the ESE (120 degrees) at 12 MPH (10 knots; 5.1 m/s)
Visibility: 15 miles (24 km)
Ceiling: 1800 feet AGL
Clouds: broken clouds at 1800 feet AGL
overcast cloud deck at 30000 feet AGL
Weather: VCSH  (showers in vicinity)

METAR text: PTPN 212150Z 08010KT 15SM BKN018TCU OVC300 29/25 A2984 RMK TCU SE-SW
Conditions at: PTPN (POHNPEI AIRPORT , FM) observed 2150 UTC 21 April 2019
Temperature: 29.0°C (84°F)
Dewpoint: 25.0°C (77°F) [RH = 79%]
Pressure (altimeter): 29.84 inches Hg (1010.6 mb)
Winds: from the E (80 degrees) at 12 MPH (10 knots; 5.1 m/s)
Visibility: 15 miles (24 km)
Ceiling: 1800 feet AGL
Clouds: broken clouds at 1800 feet AGL
overcast cloud deck at 30000 feet AGL
Weather: no significant weather observed at this time

METAR text: PTPN 212110Z 08010KT 15SM SCT018 OVC300 29/25 A2983 RMK FIRST
Conditions at: PTPN (POHNPEI AIRPORT , FM) observed 2110 UTC 21 April 2019
Temperature: 29.0°C (84°F)
Dewpoint: 25.0°C (77°F) [RH = 79%]
Pressure (altimeter): 29.83 inches Hg (1010.2 mb)
Winds: from the E (80 degrees) at 12 MPH (10 knots; 5.1 m/s)
Visibility: 15 miles (24 km)
Ceiling: 30000 feet AGL
Clouds: scattered clouds at 1800 feet AGL
overcast cloud deck at 30000 feet AGL
Weather: no significant weather observed at this time

METAR text: PTPN 210652Z 09010KT 15SM SCT018 SCT130 OVC300 29/25 A2976 RMK LAST
Conditions at: PTPN (POHNPEI AIRPORT , FM) observed 0652 UTC 21 April 2019
Temperature: 29.0°C (84°F)
Dewpoint: 25.0°C (77°F) [RH = 79%]
Pressure (altimeter): 29.76 inches Hg (1007.9 mb)
Winds: from the E (90 degrees) at 12 MPH (10 knots; 5.1 m/s)
Visibility: 15 miles (24 km)
Ceiling: 30000 feet AGL
Clouds: scattered clouds at 1800 feet AGL
scattered clouds at 13000 feet AGL
overcast cloud deck at 30000 feet AGL
Weather: no significant weather observed at this time

METAR text: PTPN 210555Z 07010KT 15SM SCT018 SCT130 OVC300 30/25 A2974
Conditions at: PTPN (POHNPEI AIRPORT , FM) observed 0555 UTC 21 April 2019
Temperature: 30.0°C (86°F)
Dewpoint: 25.0°C (77°F) [RH = 75%]
Pressure (altimeter): 29.74 inches Hg (1007.2 mb)
Winds: from the ENE (70 degrees) at 12 MPH (10 knots; 5.1 m/s)
Visibility: 15 miles (24 km)
Ceiling: 30000 feet AGL
Clouds: scattered clouds at 1800 feet AGL
scattered clouds at 13000 feet AGL
overcast cloud deck at 30000 feet AGL
Weather: no significant weather observed at this time

METAR text: PTPN 210455Z 07012KT 15SM SCT018 SCT130 OVC300 30/25 A2973
Conditions at: PTPN (POHNPEI AIRPORT , FM) observed 0455 UTC 21 April 2019
Temperature: 30.0°C (86°F)
Dewpoint: 25.0°C (77°F) [RH = 75%]
Pressure (altimeter): 29.73 inches Hg (1006.9 mb)
Winds: from the ENE (70 degrees) at 14 MPH (12 knots; 6.2 m/s)
Visibility: 15 miles (24 km)
Ceiling: 30000 feet AGL
Clouds: scattered clouds at 1800 feet AGL
scattered clouds at 13000 feet AGL
overcast cloud deck at 30000 feet AGL
Weather: no significant weather observed at this time

METAR text: PTPN 210358Z 08013KT 15SM SCT018 BKN130 OVC300 31/25 A2974
Conditions at: PTPN (POHNPEI AIRPORT , FM) observed 0358 UTC 21 April 2019
Temperature: 31.0°C (88°F)
Dewpoint: 25.0°C (77°F) [RH = 71%]
Pressure (altimeter): 29.74 inches Hg (1007.2 mb)
Winds: from the E (80 degrees) at 15 MPH (13 knots; 6.7 m/s)
Visibility: 15 miles (24 km)
Ceiling: 13000 feet AGL
Clouds: scattered clouds at 1800 feet AGL
broken clouds at 13000 feet AGL
overcast cloud deck at 30000 feet AGL
Weather: no significant weather observed at this time

METAR text: PTPN 210250Z 08010KT 15SM SCT018 BKN130 OVC300 31/25 A2975
Conditions at: PTPN (POHNPEI AIRPORT , FM) observed 0250 UTC 21 April 2019
Temperature: 31.0°C (88°F)
Dewpoint: 25.0°C (77°F) [RH = 71%]
Pressure (altimeter): 29.75 inches Hg (1007.5 mb)
Winds: from the E (80 degrees) at 12 MPH (10 knots; 5.1 m/s)
Visibility: 15 miles (24 km)
Ceiling: 13000 feet AGL
Clouds: scattered clouds at 1800 feet AGL
broken clouds at 13000 feet AGL
overcast cloud deck at 30000 feet AGL
Weather: no significant weather observed at this time

METAR text: PTPN 210238Z 08013KT 15SM SCT018 BKN130 OVC300 31/25 A2974
Conditions at: PTPN (POHNPEI AIRPORT , FM) observed 0238 UTC 21 April 2019
Temperature: 31.0°C (88°F)
Dewpoint: 25.0°C (77°F) [RH = 71%]
Pressure (altimeter): 29.74 inches Hg (1007.2 mb)
Winds: from the E (80 degrees) at 15 MPH (13 knots; 6.7 m/s)
Visibility: 15 miles (24 km)
Ceiling: 13000 feet AGL
Clouds: scattered clouds at 1800 feet AGL
broken clouds at 13000 feet AGL
overcast cloud deck at 30000 feet AGL
Weather: no significant weather observed at this time